sensor_id;sensor_type;location;lat;lon;timestamp;P1;durP1;ratioP1;P2;durP2;ratioP2
55140;SDS011;41035;44.280;19.870;2022-12-13T00:01:43;91.53;;;43.65;;
55140;SDS011;41035;44.280;19.870;2022-12-13T00:04:09;154.82;;;74.90;;
55140;SDS011;41035;44.280;19.870;2022-12-13T00:06:39;120.05;;;59.05;;
55140;SDS011;41035;44.280;19.870;2022-12-13T00:11:31;99.45;;;46.38;;
55140;SDS011;41035;44.280;19.870;2022-12-13T00:13:57;146.52;;;68.15;;
55140;SDS011;41035;44.280;19.870;2022-12-13T00:16:23;113.60;;;55.47;;
55140;SDS011;41035;44.280;19.870;2022-12-13T00:18:50;113.85;;;56.78;;
55140;SDS011;41035;44.280;19.870;2022-12-13T00:21:19;100.65;;;49.65;;
55140;SDS011;41035;44.280;19.870;2022-12-13T00:23:46;84.95;;;42.30;;
55140;SDS011;41035;44.280;19.870;2022-12-13T00:26:13;55.67;;;28.95;;
55140;SDS011;41035;44.280;19.870;2022-12-13T00:28:39;47.00;;;24.80;;
55140;SDS011;41035;44.280;19.870;2022-12-13T00:31:06;46.05;;;24.85;;
55140;SDS011;41035;44.280;19.870;2022-12-13T00:33:32;42.75;;;22.20;;
55140;SDS011;41035;44.280;19.870;2022-12-13T00:36:02;45.58;;;24.48;;
55140;SDS011;41035;44.280;19.870;2022-12-13T00:38:28;41.17;;;22.52;;
55140;SDS011;41035;44.280;19.870;2022-12-13T00:40:54;43.55;;;22.45;;
55140;SDS011;41035;44.280;19.870;2022-12-13T00:43:21;42.75;;;21.88;;
55140;SDS011;41035;44.280;19.870;2022-12-13T00:45:47;36.90;;;19.38;;
55140;SDS011;41035;44.280;19.870;2022-12-13T00:48:13;36.40;;;19.40;;
55140;SDS011;41035;44.280;19.870;2022-12-13T00:50:39;33.75;;;18.50;;
55140;SDS011;41035;44.280;19.870;2022-12-13T00:53:05;30.83;;;17.13;;
55140;SDS011;41035;44.280;19.870;2022-12-13T00:55:31;30.20;;;17.10;;
55140;SDS011;41035;44.280;19.870;2022-12-13T00:57:57;34.28;;;17.17;;
55140;SDS011;41035;44.280;19.870;2022-12-13T01:00:23;33.05;;;16.77;;
55140;SDS011;41035;44.280;19.870;2022-12-13T01:02:50;33.33;;;16.95;;
55140;SDS011;41035;44.280;19.870;2022-12-13T01:05:17;34.15;;;17.13;;
55140;SDS011;41035;44.280;19.870;2022-12-13T01:07:43;34.15;;;17.60;;
55140;SDS011;41035;44.280;19.870;2022-12-13T01:10:10;53.40;;;26.80;;
55140;SDS011;41035;44.280;19.870;2022-12-13T01:12:37;79.78;;;38.53;;
55140;SDS011;41035;44.280;19.870;2022-12-13T01:15:04;77.43;;;38.20;;
55140;SDS011;41035;44.280;19.870;2022-12-13T01:17:30;56.20;;;28.63;;
55140;SDS011;41035;44.280;19.870;2022-12-13T01:19:56;51.58;;;25.50;;
55140;SDS011;41035;44.280;19.870;2022-12-13T01:22:24;92.20;;;42.47;;
55140;SDS011;41035;44.280;19.870;2022-12-13T01:24:50;97.57;;;40.45;;
55140;SDS011;41035;44.280;19.870;2022-12-13T01:27:16;128.20;;;53.35;;
55140;SDS011;41035;44.280;19.870;2022-12-13T01:29:42;84.30;;;36.72;;
55140;SDS011;41035;44.280;19.870;2022-12-13T01:32:08;241.65;;;86.85;;
55140;SDS011;41035;44.280;19.870;2022-12-13T01:34:34;200.25;;;77.20;;
55140;SDS011;41035;44.280;19.870;2022-12-13T01:37:00;124.38;;;50.58;;
55140;SDS011;41035;44.280;19.870;2022-12-13T01:39:26;65.47;;;28.00;;
55140;SDS011;41035;44.280;19.870;2022-12-13T01:41:53;68.18;;;27.80;;
55140;SDS011;41035;44.280;19.870;2022-12-13T01:47:12;39.28;;;17.98;;
55140;SDS011;41035;44.280;19.870;2022-12-13T01:49:40;39.90;;;17.98;;
55140;SDS011;41035;44.280;19.870;2022-12-13T01:52:07;34.88;;;15.85;;
55140;SDS011;41035;44.280;19.870;2022-12-13T01:54:35;29.38;;;15.50;;
55140;SDS011;41035;44.280;19.870;2022-12-13T01:57:03;29.98;;;14.35;;
55140;SDS011;41035;44.280;19.870;2022-12-13T01:59:30;29.25;;;14.77;;
55140;SDS011;41035;44.280;19.870;2022-12-13T02:01:57;36.00;;;17.58;;
55140;SDS011;41035;44.280;19.870;2022-12-13T02:04:25;62.55;;;26.45;;
55140;SDS011;41035;44.280;19.870;2022-12-13T02:06:53;58.88;;;25.20;;
55140;SDS011;41035;44.280;19.870;2022-12-13T02:09:20;34.67;;;16.48;;
55140;SDS011;41035;44.280;19.870;2022-12-13T02:11:47;34.30;;;16.38;;
55140;SDS011;41035;44.280;19.870;2022-12-13T02:14:14;32.58;;;14.18;;
55140;SDS011;41035;44.280;19.870;2022-12-13T02:21:53;58.42;;;21.67;;
55140;SDS011;41035;44.280;19.870;2022-12-13T02:24:40;65.97;;;22.50;;
55140;SDS011;41035;44.280;19.870;2022-12-13T02:32:43;126.38;;;39.72;;
55140;SDS011;41035;44.280;19.870;2022-12-13T02:35:07;49.80;;;20.17;;
55140;SDS011;41035;44.280;19.870;2022-12-13T02:42:45;28.00;;;13.02;;
55140;SDS011;41035;44.280;19.870;2022-12-13T02:45:15;24.90;;;12.65;;
55140;SDS011;41035;44.280;19.870;2022-12-13T02:47:42;23.98;;;11.80;;
55140;SDS011;41035;44.280;19.870;2022-12-13T02:50:09;24.45;;;12.55;;
55140;SDS011;41035;44.280;19.870;2022-12-13T02:52:36;24.40;;;12.88;;
55140;SDS011;41035;44.280;19.870;2022-12-13T02:55:06;27.67;;;13.40;;
55140;SDS011;41035;44.280;19.870;2022-12-13T02:57:33;32.65;;;15.00;;
55140;SDS011;41035;44.280;19.870;2022-12-13T03:00:10;33.95;;;15.40;;
55140;SDS011;41035;44.280;19.870;2022-12-13T03:13:22;26.00;;;13.70;;
55140;SDS011;41035;44.280;19.870;2022-12-13T03:16:47;25.88;;;12.90;;
55140;SDS011;41035;44.280;19.870;2022-12-13T03:18:49;20.90;;;11.55;;
55140;SDS011;41035;44.280;19.870;2022-12-13T03:21:16;22.23;;;11.15;;
55140;SDS011;41035;44.280;19.870;2022-12-13T03:23:42;17.70;;;10.45;;
55140;SDS011;41035;44.280;19.870;2022-12-13T03:26:12;20.60;;;10.60;;
55140;SDS011;41035;44.280;19.870;2022-12-13T03:28:39;18.80;;;10.32;;
55140;SDS011;41035;44.280;19.870;2022-12-13T03:31:06;24.60;;;12.20;;
55140;SDS011;41035;44.280;19.870;2022-12-13T03:33:32;23.83;;;13.38;;
55140;SDS011;41035;44.280;19.870;2022-12-13T03:35:59;25.02;;;13.80;;
55140;SDS011;41035;44.280;19.870;2022-12-13T03:38:26;24.58;;;12.38;;
55140;SDS011;41035;44.280;19.870;2022-12-13T03:40:54;31.75;;;13.95;;
55140;SDS011;41035;44.280;19.870;2022-12-13T03:43:21;26.15;;;13.68;;
55140;SDS011;41035;44.280;19.870;2022-12-13T03:45:47;19.35;;;11.18;;
55140;SDS011;41035;44.280;19.870;2022-12-13T03:48:13;20.60;;;11.25;;
55140;SDS011;41035;44.280;19.870;2022-12-13T03:50:40;21.20;;;12.68;;
55140;SDS011;41035;44.280;19.870;2022-12-13T03:53:06;20.05;;;11.13;;
55140;SDS011;41035;44.280;19.870;2022-12-13T03:55:32;24.70;;;12.23;;
55140;SDS011;41035;44.280;19.870;2022-12-13T03:57:58;29.10;;;14.98;;
55140;SDS011;41035;44.280;19.870;2022-12-13T04:00:24;33.88;;;16.90;;
55140;SDS011;41035;44.280;19.870;2022-12-13T04:02:50;31.58;;;17.48;;
55140;SDS011;41035;44.280;19.870;2022-12-13T04:05:16;30.02;;;15.02;;
55140;SDS011;41035;44.280;19.870;2022-12-13T04:07:43;38.35;;;15.68;;
55140;SDS011;41035;44.280;19.870;2022-12-13T04:10:09;32.60;;;16.73;;
55140;SDS011;41035;44.280;19.870;2022-12-13T04:12:35;39.28;;;15.57;;
55140;SDS011;41035;44.280;19.870;2022-12-13T04:15:20;35.55;;;15.13;;
55140;SDS011;41035;44.280;19.870;2022-12-13T04:17:46;26.52;;;12.35;;
55140;SDS011;41035;44.280;19.870;2022-12-13T04:20:12;29.38;;;12.77;;
55140;SDS011;41035;44.280;19.870;2022-12-13T04:22:38;43.20;;;19.33;;
55140;SDS011;41035;44.280;19.870;2022-12-13T04:25:04;48.10;;;23.20;;
55140;SDS011;41035;44.280;19.870;2022-12-13T04:27:30;50.58;;;24.55;;
55140;SDS011;41035;44.280;19.870;2022-12-13T04:29:56;55.45;;;26.02;;
55140;SDS011;41035;44.280;19.870;2022-12-13T04:32:22;69.90;;;33.78;;
55140;SDS011;41035;44.280;19.870;2022-12-13T04:34:48;68.05;;;32.92;;
55140;SDS011;41035;44.280;19.870;2022-12-13T04:37:15;59.47;;;27.60;;
55140;SDS011;41035;44.280;19.870;2022-12-13T04:39:41;33.83;;;17.52;;
55140;SDS011;41035;44.280;19.870;2022-12-13T04:42:07;34.25;;;17.02;;
55140;SDS011;41035;44.280;19.870;2022-12-13T04:44:33;48.95;;;22.08;;
55140;SDS011;41035;44.280;19.870;2022-12-13T04:46:59;59.70;;;28.08;;
55140;SDS011;41035;44.280;19.870;2022-12-13T04:49:27;74.35;;;32.35;;
55140;SDS011;41035;44.280;19.870;2022-12-13T04:51:54;48.92;;;23.23;;
55140;SDS011;41035;44.280;19.870;2022-12-13T04:54:20;43.10;;;20.05;;
55140;SDS011;41035;44.280;19.870;2022-12-13T04:56:46;44.97;;;20.92;;
55140;SDS011;41035;44.280;19.870;2022-12-13T04:59:12;82.30;;;31.83;;
55140;SDS011;41035;44.280;19.870;2022-12-13T05:01:38;184.52;;;72.07;;
55140;SDS011;41035;44.280;19.870;2022-12-13T05:04:04;83.60;;;37.13;;
55140;SDS011;41035;44.280;19.870;2022-12-13T05:06:30;51.97;;;25.05;;
55140;SDS011;41035;44.280;19.870;2022-12-13T05:08:57;43.90;;;21.60;;
55140;SDS011;41035;44.280;19.870;2022-12-13T05:11:23;40.80;;;20.73;;
55140;SDS011;41035;44.280;19.870;2022-12-13T05:13:49;45.65;;;21.15;;
55140;SDS011;41035;44.280;19.870;2022-12-13T05:16:15;58.33;;;27.95;;
55140;SDS011;41035;44.280;19.870;2022-12-13T05:18:41;55.40;;;27.05;;
55140;SDS011;41035;44.280;19.870;2022-12-13T05:21:08;59.03;;;29.10;;
55140;SDS011;41035;44.280;19.870;2022-12-13T05:23:34;57.72;;;26.48;;
55140;SDS011;41035;44.280;19.870;2022-12-13T05:26:01;58.45;;;29.45;;
55140;SDS011;41035;44.280;19.870;2022-12-13T05:28:27;66.88;;;31.30;;
55140;SDS011;41035;44.280;19.870;2022-12-13T05:30:54;83.97;;;39.38;;
55140;SDS011;41035;44.280;19.870;2022-12-13T05:33:21;101.22;;;47.50;;
55140;SDS011;41035;44.280;19.870;2022-12-13T05:35:47;150.90;;;68.22;;
55140;SDS011;41035;44.280;19.870;2022-12-13T05:38:14;117.25;;;53.88;;
55140;SDS011;41035;44.280;19.870;2022-12-13T05:40:40;91.97;;;47.08;;
55140;SDS011;41035;44.280;19.870;2022-12-13T05:43:07;95.88;;;47.40;;
55140;SDS011;41035;44.280;19.870;2022-12-13T05:45:33;52.25;;;29.58;;
55140;SDS011;41035;44.280;19.870;2022-12-13T05:47:59;49.33;;;27.25;;
55140;SDS011;41035;44.280;19.870;2022-12-13T05:50:25;46.83;;;26.23;;
55140;SDS011;41035;44.280;19.870;2022-12-13T05:52:52;49.53;;;26.23;;
55140;SDS011;41035;44.280;19.870;2022-12-13T05:55:18;40.17;;;22.02;;
55140;SDS011;41035;44.280;19.870;2022-12-13T05:57:44;60.42;;;30.70;;
55140;SDS011;41035;44.280;19.870;2022-12-13T06:00:10;53.97;;;27.70;;
55140;SDS011;41035;44.280;19.870;2022-12-13T06:02:37;56.80;;;28.08;;
55140;SDS011;41035;44.280;19.870;2022-12-13T06:05:03;50.53;;;26.17;;
55140;SDS011;41035;44.280;19.870;2022-12-13T06:07:30;65.72;;;35.10;;
55140;SDS011;41035;44.280;19.870;2022-12-13T06:09:56;100.35;;;48.15;;
55140;SDS011;41035;44.280;19.870;2022-12-13T06:12:22;97.05;;;47.30;;
55140;SDS011;41035;44.280;19.870;2022-12-13T06:14:48;63.72;;;32.78;;
55140;SDS011;41035;44.280;19.870;2022-12-13T06:17:15;53.95;;;27.10;;
55140;SDS011;41035;44.280;19.870;2022-12-13T06:19:41;88.25;;;45.47;;
55140;SDS011;41035;44.280;19.870;2022-12-13T06:22:07;58.58;;;29.50;;
55140;SDS011;41035;44.280;19.870;2022-12-13T06:24:33;55.25;;;27.55;;
55140;SDS011;41035;44.280;19.870;2022-12-13T06:26:59;47.03;;;21.33;;
55140;SDS011;41035;44.280;19.870;2022-12-13T06:29:25;38.00;;;20.00;;
55140;SDS011;41035;44.280;19.870;2022-12-13T06:31:55;333.92;;;195.50;;
55140;SDS011;41035;44.280;19.870;2022-12-13T06:34:22;75.20;;;47.95;;
55140;SDS011;41035;44.280;19.870;2022-12-13T06:36:48;68.25;;;41.03;;
55140;SDS011;41035;44.280;19.870;2022-12-13T06:39:14;74.20;;;42.55;;
55140;SDS011;41035;44.280;19.870;2022-12-13T06:41:40;148.55;;;75.68;;
55140;SDS011;41035;44.280;19.870;2022-12-13T06:44:06;228.93;;;111.03;;
55140;SDS011;41035;44.280;19.870;2022-12-13T06:46:32;162.35;;;84.00;;
55140;SDS011;41035;44.280;19.870;2022-12-13T06:48:59;173.15;;;81.40;;
55140;SDS011;41035;44.280;19.870;2022-12-13T06:51:25;115.85;;;58.15;;
55140;SDS011;41035;44.280;19.870;2022-12-13T06:53:51;123.25;;;54.13;;
55140;SDS011;41035;44.280;19.870;2022-12-13T06:56:18;133.18;;;60.25;;
55140;SDS011;41035;44.280;19.870;2022-12-13T06:58:44;166.35;;;75.90;;
55140;SDS011;41035;44.280;19.870;2022-12-13T07:01:11;158.32;;;72.53;;
55140;SDS011;41035;44.280;19.870;2022-12-13T07:03:37;141.00;;;68.10;;
55140;SDS011;41035;44.280;19.870;2022-12-13T07:06:14;202.32;;;97.07;;
55140;SDS011;41035;44.280;19.870;2022-12-13T07:08:41;170.07;;;77.93;;
55140;SDS011;41035;44.280;19.870;2022-12-13T07:11:14;153.52;;;74.55;;
55140;SDS011;41035;44.280;19.870;2022-12-13T07:13:41;155.90;;;76.93;;
55140;SDS011;41035;44.280;19.870;2022-12-13T07:16:08;136.68;;;71.78;;
55140;SDS011;41035;44.280;19.870;2022-12-13T07:18:34;226.52;;;117.32;;
55140;SDS011;41035;44.280;19.870;2022-12-13T07:21:02;293.38;;;146.23;;
55140;SDS011;41035;44.280;19.870;2022-12-13T07:23:28;263.08;;;132.77;;
55140;SDS011;41035;44.280;19.870;2022-12-13T07:25:55;241.55;;;123.15;;
55140;SDS011;41035;44.280;19.870;2022-12-13T07:28:21;187.10;;;94.43;;
55140;SDS011;41035;44.280;19.870;2022-12-13T07:30:47;158.15;;;78.43;;
55140;SDS011;41035;44.280;19.870;2022-12-13T07:33:13;199.75;;;94.18;;
55140;SDS011;41035;44.280;19.870;2022-12-13T07:35:39;193.55;;;93.35;;
55140;SDS011;41035;44.280;19.870;2022-12-13T07:38:06;232.00;;;109.00;;
55140;SDS011;41035;44.280;19.870;2022-12-13T07:40:35;203.23;;;96.20;;
55140;SDS011;41035;44.280;19.870;2022-12-13T07:43:02;153.18;;;81.10;;
55140;SDS011;41035;44.280;19.870;2022-12-13T07:45:28;169.48;;;83.82;;
55140;SDS011;41035;44.280;19.870;2022-12-13T07:47:54;191.25;;;90.43;;
55140;SDS011;41035;44.280;19.870;2022-12-13T07:50:20;202.13;;;95.10;;
55140;SDS011;41035;44.280;19.870;2022-12-13T07:52:47;275.77;;;130.95;;
55140;SDS011;41035;44.280;19.870;2022-12-13T07:55:14;293.83;;;130.30;;
55140;SDS011;41035;44.280;19.870;2022-12-13T07:57:41;229.07;;;106.18;;
55140;SDS011;41035;44.280;19.870;2022-12-13T08:00:07;375.08;;;160.32;;
55140;SDS011;41035;44.280;19.870;2022-12-13T08:02:34;345.33;;;153.63;;
55140;SDS011;41035;44.280;19.870;2022-12-13T08:05:00;297.05;;;135.20;;
55140;SDS011;41035;44.280;19.870;2022-12-13T08:07:26;330.70;;;158.40;;
55140;SDS011;41035;44.280;19.870;2022-12-13T08:09:52;413.85;;;206.50;;
55140;SDS011;41035;44.280;19.870;2022-12-13T08:12:19;356.88;;;183.43;;
55140;SDS011;41035;44.280;19.870;2022-12-13T08:14:45;358.52;;;187.43;;
55140;SDS011;41035;44.280;19.870;2022-12-13T08:17:11;310.33;;;152.75;;
55140;SDS011;41035;44.280;19.870;2022-12-13T08:19:37;276.30;;;143.43;;
55140;SDS011;41035;44.280;19.870;2022-12-13T08:22:03;289.40;;;143.95;;
55140;SDS011;41035;44.280;19.870;2022-12-13T08:24:30;264.67;;;134.45;;
55140;SDS011;41035;44.280;19.870;2022-12-13T08:26:57;287.65;;;142.85;;
55140;SDS011;41035;44.280;19.870;2022-12-13T08:29:27;325.48;;;162.60;;
55140;SDS011;41035;44.280;19.870;2022-12-13T08:31:53;349.25;;;183.52;;
55140;SDS011;41035;44.280;19.870;2022-12-13T08:34:19;376.05;;;199.60;;
55140;SDS011;41035;44.280;19.870;2022-12-13T08:36:45;363.85;;;186.88;;
55140;SDS011;41035;44.280;19.870;2022-12-13T08:39:11;355.85;;;185.65;;
55140;SDS011;41035;44.280;19.870;2022-12-13T08:41:37;333.00;;;164.00;;
55140;SDS011;41035;44.280;19.870;2022-12-13T08:44:03;344.58;;;171.40;;
55140;SDS011;41035;44.280;19.870;2022-12-13T08:46:29;352.90;;;169.98;;
55140;SDS011;41035;44.280;19.870;2022-12-13T08:48:55;267.15;;;134.63;;
55140;SDS011;41035;44.280;19.870;2022-12-13T08:51:21;287.40;;;146.63;;
55140;SDS011;41035;44.280;19.870;2022-12-13T08:53:49;308.55;;;154.63;;
55140;SDS011;41035;44.280;19.870;2022-12-13T08:56:15;359.77;;;178.50;;
55140;SDS011;41035;44.280;19.870;2022-12-13T08:58:43;370.33;;;185.38;;
55140;SDS011;41035;44.280;19.870;2022-12-13T09:01:09;340.13;;;172.98;;
55140;SDS011;41035;44.280;19.870;2022-12-13T09:03:35;388.63;;;209.93;;
55140;SDS011;41035;44.280;19.870;2022-12-13T09:06:12;358.55;;;195.85;;
55140;SDS011;41035;44.280;19.870;2022-12-13T09:08:38;391.73;;;203.10;;
55140;SDS011;41035;44.280;19.870;2022-12-13T09:11:06;383.03;;;199.63;;
55140;SDS011;41035;44.280;19.870;2022-12-13T09:13:34;340.05;;;176.05;;
55140;SDS011;41035;44.280;19.870;2022-12-13T09:16:02;452.85;;;227.80;;
55140;SDS011;41035;44.280;19.870;2022-12-13T09:18:29;366.15;;;180.00;;
55140;SDS011;41035;44.280;19.870;2022-12-13T09:20:55;361.50;;;181.68;;
55140;SDS011;41035;44.280;19.870;2022-12-13T09:23:21;370.98;;;186.75;;
55140;SDS011;41035;44.280;19.870;2022-12-13T09:25:52;410.55;;;211.18;;
55140;SDS011;41035;44.280;19.870;2022-12-13T09:28:19;442.60;;;222.02;;
55140;SDS011;41035;44.280;19.870;2022-12-13T09:30:45;430.95;;;225.55;;
55140;SDS011;41035;44.280;19.870;2022-12-13T09:33:11;432.80;;;227.85;;
55140;SDS011;41035;44.280;19.870;2022-12-13T09:35:37;396.67;;;213.07;;
55140;SDS011;41035;44.280;19.870;2022-12-13T09:38:03;444.45;;;225.93;;
55140;SDS011;41035;44.280;19.870;2022-12-13T09:40:30;448.85;;;242.15;;
55140;SDS011;41035;44.280;19.870;2022-12-13T09:42:56;531.28;;;309.10;;
55140;SDS011;41035;44.280;19.870;2022-12-13T09:45:22;400.85;;;203.95;;
55140;SDS011;41035;44.280;19.870;2022-12-13T09:47:49;330.27;;;164.18;;
55140;SDS011;41035;44.280;19.870;2022-12-13T09:50:24;330.30;;;148.00;;
55140;SDS011;41035;44.280;19.870;2022-12-13T09:52:50;251.05;;;126.95;;
55140;SDS011;41035;44.280;19.870;2022-12-13T09:55:37;250.45;;;126.93;;
55140;SDS011;41035;44.280;19.870;2022-12-13T10:00:53;262.77;;;133.63;;
55140;SDS011;41035;44.280;19.870;2022-12-13T10:03:20;256.02;;;128.88;;
55140;SDS011;41035;44.280;19.870;2022-12-13T10:05:55;195.75;;;94.68;;
55140;SDS011;41035;44.280;19.870;2022-12-13T10:08:23;150.07;;;74.93;;
55140;SDS011;41035;44.280;19.870;2022-12-13T10:10:50;137.60;;;71.15;;
55140;SDS011;41035;44.280;19.870;2022-12-13T10:15:56;106.25;;;53.15;;
55140;SDS011;41035;44.280;19.870;2022-12-13T10:18:25;133.05;;;65.47;;
55140;SDS011;41035;44.280;19.870;2022-12-13T10:20:56;136.60;;;66.45;;
55140;SDS011;41035;44.280;19.870;2022-12-13T10:23:23;103.82;;;52.03;;
55140;SDS011;41035;44.280;19.870;2022-12-13T10:25:49;87.80;;;42.30;;
55140;SDS011;41035;44.280;19.870;2022-12-13T10:28:19;132.07;;;63.90;;
55140;SDS011;41035;44.280;19.870;2022-12-13T10:30:49;101.38;;;51.25;;
55140;SDS011;41035;44.280;19.870;2022-12-13T10:33:21;103.53;;;50.60;;
55140;SDS011;41035;44.280;19.870;2022-12-13T10:38:47;101.90;;;48.72;;
55140;SDS011;41035;44.280;19.870;2022-12-13T10:41:26;74.53;;;37.65;;
55140;SDS011;41035;44.280;19.870;2022-12-13T10:46:31;100.38;;;49.13;;
55140;SDS011;41035;44.280;19.870;2022-12-13T10:48:57;94.60;;;46.65;;
55140;SDS011;41035;44.280;19.870;2022-12-13T10:51:23;108.13;;;49.08;;
55140;SDS011;41035;44.280;19.870;2022-12-13T10:53:54;86.05;;;45.22;;
55140;SDS011;41035;44.280;19.870;2022-12-13T10:56:21;83.25;;;39.45;;
55140;SDS011;41035;44.280;19.870;2022-12-13T10:58:48;72.32;;;36.58;;
55140;SDS011;41035;44.280;19.870;2022-12-13T11:04:00;72.82;;;36.78;;
55140;SDS011;41035;44.280;19.870;2022-12-13T11:06:27;72.38;;;38.60;;
55140;SDS011;41035;44.280;19.870;2022-12-13T11:08:53;75.82;;;40.95;;
55140;SDS011;41035;44.280;19.870;2022-12-13T11:11:28;86.93;;;45.97;;
55140;SDS011;41035;44.280;19.870;2022-12-13T11:13:57;94.28;;;45.75;;
55140;SDS011;41035;44.280;19.870;2022-12-13T11:16:33;147.95;;;70.80;;
55140;SDS011;41035;44.280;19.870;2022-12-13T11:19:03;182.27;;;80.93;;
55140;SDS011;41035;44.280;19.870;2022-12-13T11:21:31;140.13;;;64.05;;
55140;SDS011;41035;44.280;19.870;2022-12-13T11:24:00;180.60;;;82.15;;
55140;SDS011;41035;44.280;19.870;2022-12-13T11:26:26;104.97;;;52.25;;
55140;SDS011;41035;44.280;19.870;2022-12-13T11:41:39;105.80;;;48.58;;
55140;SDS011;41035;44.280;19.870;2022-12-13T11:46:53;89.10;;;45.17;;
55140;SDS011;41035;44.280;19.870;2022-12-13T11:49:41;86.95;;;41.72;;
55140;SDS011;41035;44.280;19.870;2022-12-13T11:57:16;124.07;;;58.00;;
55140;SDS011;41035;44.280;19.870;2022-12-13T11:59:46;154.48;;;71.25;;
55140;SDS011;41035;44.280;19.870;2022-12-13T12:02:17;114.65;;;55.00;;
55140;SDS011;41035;44.280;19.870;2022-12-13T12:04:52;98.82;;;47.33;;
55140;SDS011;41035;44.280;19.870;2022-12-13T12:07:19;96.72;;;46.17;;
55140;SDS011;41035;44.280;19.870;2022-12-13T12:09:50;164.88;;;78.47;;
55140;SDS011;41035;44.280;19.870;2022-12-13T12:12:20;167.13;;;75.22;;
55140;SDS011;41035;44.280;19.870;2022-12-13T12:14:51;146.52;;;60.25;;
55140;SDS011;41035;44.280;19.870;2022-12-13T12:17:20;95.53;;;44.53;;
55140;SDS011;41035;44.280;19.870;2022-12-13T12:19:49;132.45;;;66.47;;
55140;SDS011;41035;44.280;19.870;2022-12-13T12:27:59;88.00;;;39.28;;
55140;SDS011;41035;44.280;19.870;2022-12-13T12:30:48;88.30;;;40.60;;
55140;SDS011;41035;44.280;19.870;2022-12-13T12:45:55;167.88;;;62.78;;
55140;SDS011;41035;44.280;19.870;2022-12-13T12:50:59;167.35;;;85.00;;
55140;SDS011;41035;44.280;19.870;2022-12-13T12:56:11;105.95;;;51.92;;
55140;SDS011;41035;44.280;19.870;2022-12-13T12:58:50;123.90;;;60.35;;
55140;SDS011;41035;44.280;19.870;2022-12-13T13:01:30;107.82;;;50.42;;
55140;SDS011;41035;44.280;19.870;2022-12-13T13:04:00;165.15;;;76.30;;
55140;SDS011;41035;44.280;19.870;2022-12-13T13:06:29;116.30;;;54.65;;
55140;SDS011;41035;44.280;19.870;2022-12-13T13:08:59;96.05;;;45.47;;
55140;SDS011;41035;44.280;19.870;2022-12-13T13:11:28;189.18;;;84.03;;
55140;SDS011;41035;44.280;19.870;2022-12-13T13:19:00;126.43;;;53.28;;
55140;SDS011;41035;44.280;19.870;2022-12-13T13:26:31;197.85;;;74.47;;
55140;SDS011;41035;44.280;19.870;2022-12-13T13:34:31;152.45;;;61.13;;
55140;SDS011;41035;44.280;19.870;2022-12-13T13:36:58;187.30;;;73.78;;
55140;SDS011;41035;44.280;19.870;2022-12-13T13:45:21;228.25;;;96.85;;
55140;SDS011;41035;44.280;19.870;2022-12-13T13:52:19;173.18;;;72.63;;
55140;SDS011;41035;44.280;19.870;2022-12-13T14:00:21;89.28;;;43.50;;
55140;SDS011;41035;44.280;19.870;2022-12-13T14:21:16;115.97;;;53.10;;
55140;SDS011;41035;44.280;19.870;2022-12-13T14:26:22;134.75;;;70.32;;
55140;SDS011;41035;44.280;19.870;2022-12-13T14:28:56;84.47;;;43.28;;
55140;SDS011;41035;44.280;19.870;2022-12-13T14:31:33;154.90;;;72.53;;
55140;SDS011;41035;44.280;19.870;2022-12-13T14:34:01;153.52;;;71.03;;
55140;SDS011;41035;44.280;19.870;2022-12-13T14:36:29;144.93;;;69.28;;
55140;SDS011;41035;44.280;19.870;2022-12-13T14:39:33;308.38;;;131.88;;
55140;SDS011;41035;44.280;19.870;2022-12-13T14:41:59;234.52;;;87.35;;
55140;SDS011;41035;44.280;19.870;2022-12-13T14:46:55;544.60;;;183.77;;
55140;SDS011;41035;44.280;19.870;2022-12-13T14:49:22;418.88;;;152.82;;
55140;SDS011;41035;44.280;19.870;2022-12-13T14:51:52;368.70;;;144.00;;
55140;SDS011;41035;44.280;19.870;2022-12-13T14:54:25;394.45;;;150.10;;
55140;SDS011;41035;44.280;19.870;2022-12-13T14:56:52;504.23;;;188.02;;
55140;SDS011;41035;44.280;19.870;2022-12-13T14:59:19;381.25;;;142.98;;
55140;SDS011;41035;44.280;19.870;2022-12-13T15:01:51;205.00;;;87.40;;
55140;SDS011;41035;44.280;19.870;2022-12-13T15:06:48;107.57;;;51.55;;
55140;SDS011;41035;44.280;19.870;2022-12-13T15:09:15;93.60;;;42.83;;
55140;SDS011;41035;44.280;19.870;2022-12-13T15:11:41;199.98;;;84.97;;
55140;SDS011;41035;44.280;19.870;2022-12-13T15:14:15;188.68;;;83.53;;
55140;SDS011;41035;44.280;19.870;2022-12-13T15:16:46;169.23;;;75.80;;
55140;SDS011;41035;44.280;19.870;2022-12-13T15:19:14;368.67;;;158.02;;
55140;SDS011;41035;44.280;19.870;2022-12-13T15:21:40;151.77;;;68.05;;
55140;SDS011;41035;44.280;19.870;2022-12-13T15:24:07;132.00;;;67.38;;
55140;SDS011;41035;44.280;19.870;2022-12-13T15:26:37;286.00;;;136.02;;
55140;SDS011;41035;44.280;19.870;2022-12-13T15:29:04;118.38;;;59.05;;
55140;SDS011;41035;44.280;19.870;2022-12-13T15:31:31;186.02;;;93.05;;
55140;SDS011;41035;44.280;19.870;2022-12-13T15:34:20;121.20;;;59.97;;
55140;SDS011;41035;44.280;19.870;2022-12-13T15:36:47;160.77;;;76.65;;
55140;SDS011;41035;44.280;19.870;2022-12-13T15:39:14;130.35;;;66.80;;
55140;SDS011;41035;44.280;19.870;2022-12-13T15:41:44;136.32;;;69.80;;
55140;SDS011;41035;44.280;19.870;2022-12-13T15:46:53;155.07;;;72.40;;
55140;SDS011;41035;44.280;19.870;2022-12-13T15:49:32;225.70;;;103.28;;
55140;SDS011;41035;44.280;19.870;2022-12-13T15:52:01;184.48;;;87.07;;
55140;SDS011;41035;44.280;19.870;2022-12-13T15:54:27;178.55;;;83.75;;
55140;SDS011;41035;44.280;19.870;2022-12-13T15:59:37;159.68;;;76.68;;
55140;SDS011;41035;44.280;19.870;2022-12-13T16:02:08;174.18;;;83.47;;
55140;SDS011;41035;44.280;19.870;2022-12-13T16:04:38;163.82;;;78.53;;
55140;SDS011;41035;44.280;19.870;2022-12-13T16:07:15;152.02;;;71.70;;
55140;SDS011;41035;44.280;19.870;2022-12-13T16:09:46;178.93;;;83.10;;
55140;SDS011;41035;44.280;19.870;2022-12-13T16:12:23;181.85;;;89.13;;
55140;SDS011;41035;44.280;19.870;2022-12-13T16:14:49;173.57;;;84.68;;
55140;SDS011;41035;44.280;19.870;2022-12-13T16:17:23;150.07;;;72.95;;
55140;SDS011;41035;44.280;19.870;2022-12-13T16:19:53;108.53;;;52.78;;
55140;SDS011;41035;44.280;19.870;2022-12-13T16:22:20;124.88;;;60.38;;
55140;SDS011;41035;44.280;19.870;2022-12-13T16:24:48;188.50;;;83.43;;
55140;SDS011;41035;44.280;19.870;2022-12-13T16:27:14;169.70;;;81.28;;
55140;SDS011;41035;44.280;19.870;2022-12-13T16:29:49;160.10;;;76.65;;
55140;SDS011;41035;44.280;19.870;2022-12-13T16:32:15;169.25;;;81.93;;
55140;SDS011;41035;44.280;19.870;2022-12-13T16:34:42;128.63;;;61.60;;
55140;SDS011;41035;44.280;19.870;2022-12-13T16:37:08;123.80;;;60.30;;